メインページ
METAR-TAF:

METAR-TAF

空港 :

フィウミチーノ空港

ローマ・フィウミチーノ, イタリア

緯度: 41-48N, 経度: 012-14E, 海抜: 2m

現時点の気象観測

当レポートは28分前の00:20(UTC)に作成
東/北東の風 4kt
気温 10°C
湿度 93%
気圧 1023 hPa
視程: 7000m

METAR: LIRF 150020Z 07004KT 7000 NSC 10/09 Q1023 NOSIG

時間: 01:48 (00:48 UTC)

予報

当レポートは1時間48分前の23:00(UTC)に作成
予報は15日の 00時(UTC)から 16日の 06時(UTC)まで有効
変向風 5kt
視程: 4000m
高度1800ftの雲はほとんどない
15日の 00時(UTC)から 15日の 06時(UTC)まで一時的に
視程: 0800m
高度800ftの千切れ雲あり
散在霧
15日の 06時(UTC)から 15日の 08時(UTC)まで徐々に
視程: 8000m
15日の 16時(UTC)から 15日の 18時(UTC)まで徐々に
北東の風 10kt

TAF: LIRF 142300Z 1500/1606 VRB05KT 4000 BR FEW018 TEMPO 1500/1506 0800 BCFG BKN008 BECMG 1506/1508 8000 BECMG 1516/1518 04010KT

4,000以上の空港の気象観測と天気予報(METAR報とTAF報)

利用可能な観測所は地図上に黄色い丸と赤い丸で示す。

丸の上にカーソルを重ねると観測所名を参照できる。

次にクリックすると気象観測と天気予報を参照できる。

マップの切り替え:黒色「×」印の緑ボタンをクリックして拡大、「-」印の緑ボタンをクリックして縮小、緑色の三角印をクリックして隣りの地図に切り替え


METAR-TAF: